Terminal Aerodrome Forecast
Issued by NWS Tampa Bay Area, FL

Home | Current Version | Previous Version | Text Only | Print | Product List | Glossary On
Versions: 1 2 3 4 5 6 7 8 9 10 11 12 13 14 15 16 17 18 19 20 21 22 23 24 25 26
691
FTUS42 KTBW 291120
TAFTPA
TAF
KTPA 291120Z 2912/3012 34004KT P6SM FEW015 SCT250
     FM291400 29005KT P6SM SCT020 SCT250
     FM291700 27009KT P6SM SCT035 SCT250
     FM300200 VRB03KT P6SM FEW040=

USA.gov is the U.S. government's official web portal to all federal, state and local government web resources and services.